sensor_id;sensor_type;location;lat;lon;timestamp;P1;durP1;ratioP1;P2;durP2;ratioP2
23266;SDS011;11802;53.160;8.214;2023-04-16T00:01:30;36.20;;;26.53;;
23266;SDS011;11802;53.160;8.214;2023-04-16T00:03:55;38.80;;;25.87;;
23266;SDS011;11802;53.160;8.214;2023-04-16T00:06:21;38.00;;;25.80;;
23266;SDS011;11802;53.160;8.214;2023-04-16T00:08:47;37.70;;;26.17;;
23266;SDS011;11802;53.160;8.214;2023-04-16T00:11:12;34.10;;;24.97;;
23266;SDS011;11802;53.160;8.214;2023-04-16T00:13:38;36.27;;;25.60;;
23266;SDS011;11802;53.160;8.214;2023-04-16T00:16:04;36.63;;;25.30;;
23266;SDS011;11802;53.160;8.214;2023-04-16T00:18:30;37.30;;;24.43;;
23266;SDS011;11802;53.160;8.214;2023-04-16T00:20:56;38.17;;;25.97;;
23266;SDS011;11802;53.160;8.214;2023-04-16T00:23:21;37.47;;;24.93;;
23266;SDS011;11802;53.160;8.214;2023-04-16T00:25:49;40.03;;;25.23;;
23266;SDS011;11802;53.160;8.214;2023-04-16T00:28:14;33.20;;;24.90;;
23266;SDS011;11802;53.160;8.214;2023-04-16T00:30:40;36.57;;;25.80;;
23266;SDS011;11802;53.160;8.214;2023-04-16T00:33:05;35.67;;;24.60;;
23266;SDS011;11802;53.160;8.214;2023-04-16T00:35:31;35.67;;;24.03;;
23266;SDS011;11802;53.160;8.214;2023-04-16T00:37:56;34.90;;;24.27;;
23266;SDS011;11802;53.160;8.214;2023-04-16T00:40:22;37.87;;;25.70;;
23266;SDS011;11802;53.160;8.214;2023-04-16T00:42:50;37.00;;;25.03;;
23266;SDS011;11802;53.160;8.214;2023-04-16T00:45:16;35.10;;;24.00;;
23266;SDS011;11802;53.160;8.214;2023-04-16T00:47:41;35.40;;;24.47;;
23266;SDS011;11802;53.160;8.214;2023-04-16T00:50:07;37.67;;;24.70;;
23266;SDS011;11802;53.160;8.214;2023-04-16T00:52:34;39.67;;;25.40;;
23266;SDS011;11802;53.160;8.214;2023-04-16T00:54:59;34.63;;;24.57;;
23266;SDS011;11802;53.160;8.214;2023-04-16T00:57:25;38.27;;;24.97;;
23266;SDS011;11802;53.160;8.214;2023-04-16T00:59:51;38.10;;;24.77;;
23266;SDS011;11802;53.160;8.214;2023-04-16T01:02:18;37.00;;;25.00;;
23266;SDS011;11802;53.160;8.214;2023-04-16T01:04:44;37.20;;;26.17;;
23266;SDS011;11802;53.160;8.214;2023-04-16T01:07:09;40.90;;;25.87;;
23266;SDS011;11802;53.160;8.214;2023-04-16T01:09:35;41.30;;;26.60;;
23266;SDS011;11802;53.160;8.214;2023-04-16T01:12:00;36.00;;;25.70;;
23266;SDS011;11802;53.160;8.214;2023-04-16T01:14:26;38.40;;;26.83;;
23266;SDS011;11802;53.160;8.214;2023-04-16T01:16:51;37.50;;;24.80;;
23266;SDS011;11802;53.160;8.214;2023-04-16T01:19:17;38.50;;;25.83;;
23266;SDS011;11802;53.160;8.214;2023-04-16T01:21:42;36.50;;;24.63;;
23266;SDS011;11802;53.160;8.214;2023-04-16T01:24:09;38.23;;;25.80;;
23266;SDS011;11802;53.160;8.214;2023-04-16T01:26:35;38.67;;;23.97;;
23266;SDS011;11802;53.160;8.214;2023-04-16T01:29:01;37.57;;;25.30;;
23266;SDS011;11802;53.160;8.214;2023-04-16T01:31:26;39.83;;;25.27;;
23266;SDS011;11802;53.160;8.214;2023-04-16T01:33:52;42.73;;;26.30;;
23266;SDS011;11802;53.160;8.214;2023-04-16T01:36:17;39.10;;;24.83;;
23266;SDS011;11802;53.160;8.214;2023-04-16T01:38:43;38.80;;;25.20;;
23266;SDS011;11802;53.160;8.214;2023-04-16T01:41:10;36.63;;;24.33;;
23266;SDS011;11802;53.160;8.214;2023-04-16T01:43:35;38.00;;;25.73;;
23266;SDS011;11802;53.160;8.214;2023-04-16T01:46:12;37.90;;;24.20;;
23266;SDS011;11802;53.160;8.214;2023-04-16T01:48:40;38.57;;;24.40;;
23266;SDS011;11802;53.160;8.214;2023-04-16T01:51:05;35.50;;;23.43;;
23266;SDS011;11802;53.160;8.214;2023-04-16T01:53:31;34.77;;;24.40;;
23266;SDS011;11802;53.160;8.214;2023-04-16T01:55:56;33.93;;;23.40;;
23266;SDS011;11802;53.160;8.214;2023-04-16T01:58:22;34.47;;;23.33;;
23266;SDS011;11802;53.160;8.214;2023-04-16T02:00:47;35.70;;;25.07;;
23266;SDS011;11802;53.160;8.214;2023-04-16T02:03:13;33.33;;;24.40;;
23266;SDS011;11802;53.160;8.214;2023-04-16T02:05:41;35.20;;;23.70;;
23266;SDS011;11802;53.160;8.214;2023-04-16T02:08:06;36.97;;;25.23;;
23266;SDS011;11802;53.160;8.214;2023-04-16T02:10:32;38.07;;;25.50;;
23266;SDS011;11802;53.160;8.214;2023-04-16T02:12:57;36.33;;;24.57;;
23266;SDS011;11802;53.160;8.214;2023-04-16T02:15:24;35.97;;;24.00;;
23266;SDS011;11802;53.160;8.214;2023-04-16T02:17:50;36.73;;;23.80;;
23266;SDS011;11802;53.160;8.214;2023-04-16T02:20:20;39.63;;;24.13;;
23266;SDS011;11802;53.160;8.214;2023-04-16T02:22:46;36.40;;;23.87;;
23266;SDS011;11802;53.160;8.214;2023-04-16T02:25:11;36.03;;;23.03;;
23266;SDS011;11802;53.160;8.214;2023-04-16T02:27:38;36.57;;;25.53;;
23266;SDS011;11802;53.160;8.214;2023-04-16T02:30:04;37.27;;;24.13;;
23266;SDS011;11802;53.160;8.214;2023-04-16T02:32:31;36.07;;;25.23;;
23266;SDS011;11802;53.160;8.214;2023-04-16T02:34:57;35.00;;;23.70;;
23266;SDS011;11802;53.160;8.214;2023-04-16T02:37:22;38.30;;;25.63;;
23266;SDS011;11802;53.160;8.214;2023-04-16T02:39:49;37.40;;;24.33;;
23266;SDS011;11802;53.160;8.214;2023-04-16T02:42:15;34.70;;;25.10;;
23266;SDS011;11802;53.160;8.214;2023-04-16T02:44:43;36.50;;;23.90;;
23266;SDS011;11802;53.160;8.214;2023-04-16T02:47:09;36.17;;;24.93;;
23266;SDS011;11802;53.160;8.214;2023-04-16T02:49:35;35.03;;;24.43;;
23266;SDS011;11802;53.160;8.214;2023-04-16T02:52:00;34.70;;;24.73;;
23266;SDS011;11802;53.160;8.214;2023-04-16T02:54:26;38.20;;;24.23;;
23266;SDS011;11802;53.160;8.214;2023-04-16T02:56:51;35.00;;;23.63;;
23266;SDS011;11802;53.160;8.214;2023-04-16T02:59:17;34.07;;;22.77;;
23266;SDS011;11802;53.160;8.214;2023-04-16T03:01:42;32.07;;;22.27;;
23266;SDS011;11802;53.160;8.214;2023-04-16T03:04:08;35.27;;;24.07;;
23266;SDS011;11802;53.160;8.214;2023-04-16T03:06:33;35.07;;;23.13;;
23266;SDS011;11802;53.160;8.214;2023-04-16T03:08:59;39.67;;;24.20;;
23266;SDS011;11802;53.160;8.214;2023-04-16T03:11:25;34.70;;;22.60;;
23266;SDS011;11802;53.160;8.214;2023-04-16T03:13:50;34.03;;;23.27;;
23266;SDS011;11802;53.160;8.214;2023-04-16T03:16:16;34.73;;;23.40;;
23266;SDS011;11802;53.160;8.214;2023-04-16T03:18:41;35.47;;;23.27;;
23266;SDS011;11802;53.160;8.214;2023-04-16T03:21:07;40.33;;;24.97;;
23266;SDS011;11802;53.160;8.214;2023-04-16T03:23:33;36.77;;;23.97;;
23266;SDS011;11802;53.160;8.214;2023-04-16T03:26:00;34.13;;;23.93;;
23266;SDS011;11802;53.160;8.214;2023-04-16T03:28:25;36.20;;;23.60;;
23266;SDS011;11802;53.160;8.214;2023-04-16T03:30:51;35.67;;;24.20;;
23266;SDS011;11802;53.160;8.214;2023-04-16T03:33:17;37.70;;;24.30;;
23266;SDS011;11802;53.160;8.214;2023-04-16T03:35:44;35.77;;;24.40;;
23266;SDS011;11802;53.160;8.214;2023-04-16T03:38:09;36.53;;;24.90;;
23266;SDS011;11802;53.160;8.214;2023-04-16T03:40:35;35.77;;;24.80;;
23266;SDS011;11802;53.160;8.214;2023-04-16T03:43:00;35.37;;;24.03;;
23266;SDS011;11802;53.160;8.214;2023-04-16T03:45:26;38.30;;;24.37;;
23266;SDS011;11802;53.160;8.214;2023-04-16T03:47:51;34.80;;;24.20;;
23266;SDS011;11802;53.160;8.214;2023-04-16T03:50:17;40.50;;;24.43;;
23266;SDS011;11802;53.160;8.214;2023-04-16T03:52:43;35.93;;;25.17;;
23266;SDS011;11802;53.160;8.214;2023-04-16T03:55:10;33.57;;;23.23;;
23266;SDS011;11802;53.160;8.214;2023-04-16T03:57:36;37.30;;;25.83;;
23266;SDS011;11802;53.160;8.214;2023-04-16T04:00:02;35.20;;;24.87;;
23266;SDS011;11802;53.160;8.214;2023-04-16T04:02:28;36.37;;;25.13;;
23266;SDS011;11802;53.160;8.214;2023-04-16T04:04:53;36.63;;;24.80;;
23266;SDS011;11802;53.160;8.214;2023-04-16T04:07:19;37.83;;;25.40;;
23266;SDS011;11802;53.160;8.214;2023-04-16T04:09:45;36.73;;;24.63;;
23266;SDS011;11802;53.160;8.214;2023-04-16T04:12:10;35.43;;;24.40;;
23266;SDS011;11802;53.160;8.214;2023-04-16T04:14:37;39.90;;;24.47;;
23266;SDS011;11802;53.160;8.214;2023-04-16T04:17:04;38.17;;;25.13;;
23266;SDS011;11802;53.160;8.214;2023-04-16T04:19:30;38.00;;;24.90;;
23266;SDS011;11802;53.160;8.214;2023-04-16T04:21:55;33.80;;;24.00;;
23266;SDS011;11802;53.160;8.214;2023-04-16T04:24:21;35.27;;;24.60;;
23266;SDS011;11802;53.160;8.214;2023-04-16T04:26:46;33.37;;;22.83;;
23266;SDS011;11802;53.160;8.214;2023-04-16T04:29:12;37.33;;;23.87;;
23266;SDS011;11802;53.160;8.214;2023-04-16T04:31:37;37.10;;;23.40;;
23266;SDS011;11802;53.160;8.214;2023-04-16T04:34:03;34.77;;;23.90;;
23266;SDS011;11802;53.160;8.214;2023-04-16T04:36:28;33.47;;;24.20;;
23266;SDS011;11802;53.160;8.214;2023-04-16T04:38:54;33.60;;;23.93;;
23266;SDS011;11802;53.160;8.214;2023-04-16T04:41:20;36.03;;;24.60;;
23266;SDS011;11802;53.160;8.214;2023-04-16T04:43:46;31.30;;;23.00;;
23266;SDS011;11802;53.160;8.214;2023-04-16T04:46:11;34.63;;;22.93;;
23266;SDS011;11802;53.160;8.214;2023-04-16T04:48:37;35.30;;;23.63;;
23266;SDS011;11802;53.160;8.214;2023-04-16T04:51:02;34.20;;;23.70;;
23266;SDS011;11802;53.160;8.214;2023-04-16T04:53:28;33.87;;;24.37;;
23266;SDS011;11802;53.160;8.214;2023-04-16T04:55:54;36.63;;;23.97;;
23266;SDS011;11802;53.160;8.214;2023-04-16T04:58:20;32.60;;;22.37;;
23266;SDS011;11802;53.160;8.214;2023-04-16T05:00:45;33.53;;;23.43;;
23266;SDS011;11802;53.160;8.214;2023-04-16T05:03:11;33.77;;;22.20;;
23266;SDS011;11802;53.160;8.214;2023-04-16T05:05:40;33.20;;;22.17;;
23266;SDS011;11802;53.160;8.214;2023-04-16T05:08:05;31.70;;;22.33;;
23266;SDS011;11802;53.160;8.214;2023-04-16T05:10:31;34.70;;;23.13;;
23266;SDS011;11802;53.160;8.214;2023-04-16T05:12:56;31.77;;;21.93;;
23266;SDS011;11802;53.160;8.214;2023-04-16T05:15:22;32.43;;;22.03;;
23266;SDS011;11802;53.160;8.214;2023-04-16T05:17:48;31.17;;;21.30;;
23266;SDS011;11802;53.160;8.214;2023-04-16T05:20:13;32.70;;;21.70;;
23266;SDS011;11802;53.160;8.214;2023-04-16T05:22:39;32.60;;;21.53;;
23266;SDS011;11802;53.160;8.214;2023-04-16T05:25:05;28.73;;;20.53;;
23266;SDS011;11802;53.160;8.214;2023-04-16T05:27:30;30.40;;;21.73;;
23266;SDS011;11802;53.160;8.214;2023-04-16T05:29:56;29.23;;;21.10;;
23266;SDS011;11802;53.160;8.214;2023-04-16T05:32:24;28.90;;;20.87;;
23266;SDS011;11802;53.160;8.214;2023-04-16T05:34:50;28.27;;;20.87;;
23266;SDS011;11802;53.160;8.214;2023-04-16T05:37:15;29.33;;;20.37;;
23266;SDS011;11802;53.160;8.214;2023-04-16T05:39:41;28.00;;;19.53;;
23266;SDS011;11802;53.160;8.214;2023-04-16T05:42:06;29.20;;;19.80;;
23266;SDS011;11802;53.160;8.214;2023-04-16T05:44:32;27.63;;;19.37;;
23266;SDS011;11802;53.160;8.214;2023-04-16T05:46:58;27.53;;;19.07;;
23266;SDS011;11802;53.160;8.214;2023-04-16T05:49:23;26.70;;;19.10;;
23266;SDS011;11802;53.160;8.214;2023-04-16T05:51:49;25.50;;;18.27;;
23266;SDS011;11802;53.160;8.214;2023-04-16T05:54:14;25.00;;;17.63;;
23266;SDS011;11802;53.160;8.214;2023-04-16T05:56:40;27.50;;;17.93;;
23266;SDS011;11802;53.160;8.214;2023-04-16T05:59:06;22.60;;;16.77;;
23266;SDS011;11802;53.160;8.214;2023-04-16T06:01:32;25.60;;;17.07;;
23266;SDS011;11802;53.160;8.214;2023-04-16T06:03:57;23.50;;;17.17;;
23266;SDS011;11802;53.160;8.214;2023-04-16T06:06:23;24.47;;;17.50;;
23266;SDS011;11802;53.160;8.214;2023-04-16T06:08:48;25.87;;;17.40;;
23266;SDS011;11802;53.160;8.214;2023-04-16T06:11:14;26.20;;;17.60;;
23266;SDS011;11802;53.160;8.214;2023-04-16T06:13:40;25.50;;;17.30;;
23266;SDS011;11802;53.160;8.214;2023-04-16T06:16:06;26.07;;;17.83;;
23266;SDS011;11802;53.160;8.214;2023-04-16T06:18:32;22.30;;;16.33;;
23266;SDS011;11802;53.160;8.214;2023-04-16T06:20:57;23.93;;;16.50;;
23266;SDS011;11802;53.160;8.214;2023-04-16T06:23:23;24.83;;;17.23;;
23266;SDS011;11802;53.160;8.214;2023-04-16T06:25:49;24.30;;;16.53;;
23266;SDS011;11802;53.160;8.214;2023-04-16T06:28:15;26.60;;;17.13;;
23266;SDS011;11802;53.160;8.214;2023-04-16T06:30:40;21.83;;;16.27;;
23266;SDS011;11802;53.160;8.214;2023-04-16T06:33:06;24.70;;;17.60;;
23266;SDS011;11802;53.160;8.214;2023-04-16T06:35:31;24.53;;;17.10;;
23266;SDS011;11802;53.160;8.214;2023-04-16T06:37:57;25.40;;;16.17;;
23266;SDS011;11802;53.160;8.214;2023-04-16T06:40:22;24.77;;;16.87;;
23266;SDS011;11802;53.160;8.214;2023-04-16T06:42:48;25.37;;;18.10;;
23266;SDS011;11802;53.160;8.214;2023-04-16T06:45:13;25.57;;;17.50;;
23266;SDS011;11802;53.160;8.214;2023-04-16T06:47:39;26.77;;;17.67;;
23266;SDS011;11802;53.160;8.214;2023-04-16T06:50:06;24.17;;;17.97;;
23266;SDS011;11802;53.160;8.214;2023-04-16T06:52:32;24.70;;;16.97;;
23266;SDS011;11802;53.160;8.214;2023-04-16T06:54:57;24.40;;;17.57;;
23266;SDS011;11802;53.160;8.214;2023-04-16T06:57:23;25.67;;;18.13;;
23266;SDS011;11802;53.160;8.214;2023-04-16T06:59:48;25.20;;;17.67;;
23266;SDS011;11802;53.160;8.214;2023-04-16T07:02:14;25.13;;;16.73;;
23266;SDS011;11802;53.160;8.214;2023-04-16T07:04:39;25.40;;;17.47;;
23266;SDS011;11802;53.160;8.214;2023-04-16T07:07:05;24.23;;;17.43;;
23266;SDS011;11802;53.160;8.214;2023-04-16T07:09:32;25.10;;;17.43;;
23266;SDS011;11802;53.160;8.214;2023-04-16T07:11:57;25.40;;;16.83;;
23266;SDS011;11802;53.160;8.214;2023-04-16T07:14:23;24.97;;;16.93;;
23266;SDS011;11802;53.160;8.214;2023-04-16T07:16:49;29.13;;;17.30;;
23266;SDS011;11802;53.160;8.214;2023-04-16T07:19:14;25.50;;;17.53;;
23266;SDS011;11802;53.160;8.214;2023-04-16T07:21:40;24.53;;;18.07;;
23266;SDS011;11802;53.160;8.214;2023-04-16T07:24:11;26.17;;;16.10;;
23266;SDS011;11802;53.160;8.214;2023-04-16T07:26:36;25.17;;;16.67;;
23266;SDS011;11802;53.160;8.214;2023-04-16T07:29:03;23.93;;;16.80;;
23266;SDS011;11802;53.160;8.214;2023-04-16T07:31:29;24.77;;;16.87;;
23266;SDS011;11802;53.160;8.214;2023-04-16T07:33:55;24.30;;;16.37;;
23266;SDS011;11802;53.160;8.214;2023-04-16T07:36:21;25.60;;;17.47;;
23266;SDS011;11802;53.160;8.214;2023-04-16T07:38:47;22.47;;;17.17;;
23266;SDS011;11802;53.160;8.214;2023-04-16T07:41:13;25.63;;;16.07;;
23266;SDS011;11802;53.160;8.214;2023-04-16T07:43:39;23.30;;;15.90;;
23266;SDS011;11802;53.160;8.214;2023-04-16T07:46:04;25.37;;;15.73;;
23266;SDS011;11802;53.160;8.214;2023-04-16T07:48:30;25.67;;;17.03;;
23266;SDS011;11802;53.160;8.214;2023-04-16T07:50:56;24.27;;;16.23;;
23266;SDS011;11802;53.160;8.214;2023-04-16T07:53:22;23.57;;;16.20;;
23266;SDS011;11802;53.160;8.214;2023-04-16T07:55:47;23.20;;;16.50;;
23266;SDS011;11802;53.160;8.214;2023-04-16T07:58:13;26.47;;;16.70;;
23266;SDS011;11802;53.160;8.214;2023-04-16T08:00:38;22.63;;;15.97;;
23266;SDS011;11802;53.160;8.214;2023-04-16T08:03:04;26.97;;;16.77;;
23266;SDS011;11802;53.160;8.214;2023-04-16T08:05:29;25.43;;;16.63;;
23266;SDS011;11802;53.160;8.214;2023-04-16T08:07:55;22.20;;;14.93;;
23266;SDS011;11802;53.160;8.214;2023-04-16T08:10:20;22.27;;;15.73;;
23266;SDS011;11802;53.160;8.214;2023-04-16T08:12:46;21.67;;;15.13;;
23266;SDS011;11802;53.160;8.214;2023-04-16T08:15:11;19.73;;;15.17;;
23266;SDS011;11802;53.160;8.214;2023-04-16T08:17:38;23.33;;;15.10;;
23266;SDS011;11802;53.160;8.214;2023-04-16T08:20:05;20.63;;;14.67;;
23266;SDS011;11802;53.160;8.214;2023-04-16T08:22:33;23.97;;;15.93;;
23266;SDS011;11802;53.160;8.214;2023-04-16T08:24:58;23.90;;;14.63;;
23266;SDS011;11802;53.160;8.214;2023-04-16T08:27:24;21.83;;;15.17;;
23266;SDS011;11802;53.160;8.214;2023-04-16T08:29:49;24.40;;;15.73;;
23266;SDS011;11802;53.160;8.214;2023-04-16T08:32:15;20.90;;;14.67;;
23266;SDS011;11802;53.160;8.214;2023-04-16T08:34:41;22.37;;;14.37;;
23266;SDS011;11802;53.160;8.214;2023-04-16T08:37:06;23.67;;;15.30;;
23266;SDS011;11802;53.160;8.214;2023-04-16T08:39:32;20.57;;;14.77;;
23266;SDS011;11802;53.160;8.214;2023-04-16T08:41:58;21.33;;;15.13;;
23266;SDS011;11802;53.160;8.214;2023-04-16T08:44:30;26.43;;;16.10;;
23266;SDS011;11802;53.160;8.214;2023-04-16T08:46:58;22.47;;;14.40;;
23266;SDS011;11802;53.160;8.214;2023-04-16T08:49:26;23.43;;;15.43;;
23266;SDS011;11802;53.160;8.214;2023-04-16T08:51:52;23.13;;;14.63;;
23266;SDS011;11802;53.160;8.214;2023-04-16T08:55:05;23.03;;;15.73;;
23266;SDS011;11802;53.160;8.214;2023-04-16T08:57:10;22.30;;;14.73;;
23266;SDS011;11802;53.160;8.214;2023-04-16T08:59:40;21.70;;;14.43;;
23266;SDS011;11802;53.160;8.214;2023-04-16T09:02:09;21.63;;;15.23;;
23266;SDS011;11802;53.160;8.214;2023-04-16T09:04:36;21.27;;;14.33;;
23266;SDS011;11802;53.160;8.214;2023-04-16T09:07:03;21.03;;;14.90;;
23266;SDS011;11802;53.160;8.214;2023-04-16T09:09:31;19.43;;;14.67;;
23266;SDS011;11802;53.160;8.214;2023-04-16T09:11:57;20.60;;;14.27;;
23266;SDS011;11802;53.160;8.214;2023-04-16T09:14:23;20.53;;;14.57;;
23266;SDS011;11802;53.160;8.214;2023-04-16T09:16:49;24.43;;;14.73;;
23266;SDS011;11802;53.160;8.214;2023-04-16T09:19:17;21.33;;;14.73;;
23266;SDS011;11802;53.160;8.214;2023-04-16T09:21:44;22.67;;;15.03;;
23266;SDS011;11802;53.160;8.214;2023-04-16T09:24:11;20.20;;;14.37;;
23266;SDS011;11802;53.160;8.214;2023-04-16T09:26:36;24.33;;;15.03;;
23266;SDS011;11802;53.160;8.214;2023-04-16T09:29:02;21.73;;;14.43;;
23266;SDS011;11802;53.160;8.214;2023-04-16T09:31:28;19.27;;;14.03;;
23266;SDS011;11802;53.160;8.214;2023-04-16T09:34:01;22.23;;;15.23;;
23266;SDS011;11802;53.160;8.214;2023-04-16T09:36:28;18.80;;;13.63;;
23266;SDS011;11802;53.160;8.214;2023-04-16T09:38:54;28.30;;;14.73;;
23266;SDS011;11802;53.160;8.214;2023-04-16T09:41:23;21.70;;;14.13;;
23266;SDS011;11802;53.160;8.214;2023-04-16T09:43:54;21.03;;;13.77;;
23266;SDS011;11802;53.160;8.214;2023-04-16T09:46:31;20.63;;;14.47;;
23266;SDS011;11802;53.160;8.214;2023-04-16T09:49:03;19.67;;;13.63;;
23266;SDS011;11802;53.160;8.214;2023-04-16T09:51:37;20.07;;;13.33;;
23266;SDS011;11802;53.160;8.214;2023-04-16T09:54:07;20.07;;;13.57;;
23266;SDS011;11802;53.160;8.214;2023-04-16T09:56:32;19.93;;;13.50;;
23266;SDS011;11802;53.160;8.214;2023-04-16T09:59:04;18.10;;;12.93;;
23266;SDS011;11802;53.160;8.214;2023-04-16T10:01:30;19.00;;;13.53;;
23266;SDS011;11802;53.160;8.214;2023-04-16T10:03:55;19.13;;;13.03;;
23266;SDS011;11802;53.160;8.214;2023-04-16T10:06:22;18.90;;;12.27;;
23266;SDS011;11802;53.160;8.214;2023-04-16T10:08:51;16.73;;;12.10;;
23266;SDS011;11802;53.160;8.214;2023-04-16T10:11:22;16.27;;;11.43;;
23266;SDS011;11802;53.160;8.214;2023-04-16T10:13:48;18.13;;;12.47;;
23266;SDS011;11802;53.160;8.214;2023-04-16T10:16:14;16.47;;;11.63;;
23266;SDS011;11802;53.160;8.214;2023-04-16T10:18:41;21.03;;;11.57;;
23266;SDS011;11802;53.160;8.214;2023-04-16T10:21:08;15.77;;;11.53;;
23266;SDS011;11802;53.160;8.214;2023-04-16T10:23:37;15.73;;;11.37;;
23266;SDS011;11802;53.160;8.214;2023-04-16T10:26:03;20.10;;;12.20;;
23266;SDS011;11802;53.160;8.214;2023-04-16T10:28:29;15.93;;;11.50;;
23266;SDS011;11802;53.160;8.214;2023-04-16T10:30:58;16.13;;;10.95;;
23266;SDS011;11802;53.160;8.214;2023-04-16T10:33:29;16.70;;;11.38;;
23266;SDS011;11802;53.160;8.214;2023-04-16T10:36:10;16.25;;;11.93;;
23266;SDS011;11802;53.160;8.214;2023-04-16T10:38:50;13.52;;;10.57;;
23266;SDS011;11802;53.160;8.214;2023-04-16T10:41:20;16.87;;;10.63;;
23266;SDS011;11802;53.160;8.214;2023-04-16T10:43:46;15.63;;;10.57;;
23266;SDS011;11802;53.160;8.214;2023-04-16T10:48:49;17.45;;;10.70;;
23266;SDS011;11802;53.160;8.214;2023-04-16T10:51:27;16.77;;;10.55;;
23266;SDS011;11802;53.160;8.214;2023-04-16T10:53:56;14.68;;;11.00;;
23266;SDS011;11802;53.160;8.214;2023-04-16T10:56:30;15.33;;;11.63;;
23266;SDS011;11802;53.160;8.214;2023-04-16T10:58:56;17.17;;;11.15;;
23266;SDS011;11802;53.160;8.214;2023-04-16T11:01:28;21.65;;;11.73;;
23266;SDS011;11802;53.160;8.214;2023-04-16T11:03:55;14.32;;;10.15;;
23266;SDS011;11802;53.160;8.214;2023-04-16T11:06:24;16.55;;;10.68;;
23266;SDS011;11802;53.160;8.214;2023-04-16T11:08:51;16.05;;;10.57;;
23266;SDS011;11802;53.160;8.214;2023-04-16T11:11:17;15.88;;;10.63;;
23266;SDS011;11802;53.160;8.214;2023-04-16T11:13:44;15.00;;;10.60;;
23266;SDS011;11802;53.160;8.214;2023-04-16T11:16:10;14.88;;;11.35;;
23266;SDS011;11802;53.160;8.214;2023-04-16T11:18:38;14.18;;;10.63;;
23266;SDS011;11802;53.160;8.214;2023-04-16T11:21:08;16.30;;;10.50;;
23266;SDS011;11802;53.160;8.214;2023-04-16T11:23:45;14.80;;;10.25;;
23266;SDS011;11802;53.160;8.214;2023-04-16T11:26:24;14.55;;;10.13;;
23266;SDS011;11802;53.160;8.214;2023-04-16T11:28:52;13.85;;;9.02;;
23266;SDS011;11802;53.160;8.214;2023-04-16T11:31:19;13.60;;;9.18;;
23266;SDS011;11802;53.160;8.214;2023-04-16T11:33:45;12.23;;;8.43;;
23266;SDS011;11802;53.160;8.214;2023-04-16T11:36:10;16.08;;;10.23;;
23266;SDS011;11802;53.160;8.214;2023-04-16T11:38:36;13.15;;;9.85;;
23266;SDS011;11802;53.160;8.214;2023-04-16T11:41:05;12.75;;;10.05;;
23266;SDS011;11802;53.160;8.214;2023-04-16T11:43:30;14.43;;;9.75;;
23266;SDS011;11802;53.160;8.214;2023-04-16T11:46:00;17.10;;;9.68;;
23266;SDS011;11802;53.160;8.214;2023-04-16T11:48:49;14.52;;;10.13;;
23266;SDS011;11802;53.160;8.214;2023-04-16T11:51:19;14.02;;;9.65;;
23266;SDS011;11802;53.160;8.214;2023-04-16T11:53:46;14.52;;;10.18;;
23266;SDS011;11802;53.160;8.214;2023-04-16T11:56:26;16.70;;;9.50;;
23266;SDS011;11802;53.160;8.214;2023-04-16T12:01:46;15.30;;;10.02;;
23266;SDS011;11802;53.160;8.214;2023-04-16T12:04:14;13.15;;;9.77;;
23266;SDS011;11802;53.160;8.214;2023-04-16T12:06:40;13.75;;;9.63;;
23266;SDS011;11802;53.160;8.214;2023-04-16T12:09:25;15.10;;;9.27;;
23266;SDS011;11802;53.160;8.214;2023-04-16T12:11:53;14.60;;;10.13;;
23266;SDS011;11802;53.160;8.214;2023-04-16T12:14:19;13.90;;;9.43;;
23266;SDS011;11802;53.160;8.214;2023-04-16T12:16:45;14.07;;;9.75;;
23266;SDS011;11802;53.160;8.214;2023-04-16T12:19:11;13.75;;;9.55;;
23266;SDS011;11802;53.160;8.214;2023-04-16T12:24:07;15.25;;;10.48;;
23266;SDS011;11802;53.160;8.214;2023-04-16T12:26:35;13.70;;;9.77;;
23266;SDS011;11802;53.160;8.214;2023-04-16T12:29:21;13.68;;;9.98;;
23266;SDS011;11802;53.160;8.214;2023-04-16T12:31:48;12.18;;;9.02;;
23266;SDS011;11802;53.160;8.214;2023-04-16T12:34:17;12.65;;;9.63;;
23266;SDS011;11802;53.160;8.214;2023-04-16T12:36:44;12.68;;;9.32;;
23266;SDS011;11802;53.160;8.214;2023-04-16T12:39:10;13.43;;;8.82;;
23266;SDS011;11802;53.160;8.214;2023-04-16T12:41:37;12.73;;;8.80;;
23266;SDS011;11802;53.160;8.214;2023-04-16T12:44:16;12.75;;;8.77;;
23266;SDS011;11802;53.160;8.214;2023-04-16T12:46:42;14.23;;;9.07;;
23266;SDS011;11802;53.160;8.214;2023-04-16T12:49:09;12.27;;;8.98;;
23266;SDS011;11802;53.160;8.214;2023-04-16T12:51:35;12.43;;;8.98;;
23266;SDS011;11802;53.160;8.214;2023-04-16T12:54:02;14.50;;;8.70;;
23266;SDS011;11802;53.160;8.214;2023-04-16T12:56:29;13.18;;;9.02;;
23266;SDS011;11802;53.160;8.214;2023-04-16T12:58:54;12.38;;;9.07;;
23266;SDS011;11802;53.160;8.214;2023-04-16T13:01:20;13.13;;;8.65;;
23266;SDS011;11802;53.160;8.214;2023-04-16T13:03:46;12.27;;;9.20;;
23266;SDS011;11802;53.160;8.214;2023-04-16T13:06:12;12.70;;;9.38;;
23266;SDS011;11802;53.160;8.214;2023-04-16T13:08:39;12.57;;;8.90;;
23266;SDS011;11802;53.160;8.214;2023-04-16T13:11:05;12.10;;;8.85;;
23266;SDS011;11802;53.160;8.214;2023-04-16T13:13:31;13.27;;;8.90;;
23266;SDS011;11802;53.160;8.214;2023-04-16T13:15:57;12.93;;;8.77;;
23266;SDS011;11802;53.160;8.214;2023-04-16T13:18:24;12.15;;;8.88;;
23266;SDS011;11802;53.160;8.214;2023-04-16T13:20:51;14.55;;;8.68;;
23266;SDS011;11802;53.160;8.214;2023-04-16T13:23:18;11.93;;;9.23;;
23266;SDS011;11802;53.160;8.214;2023-04-16T13:25:43;14.38;;;9.98;;
23266;SDS011;11802;53.160;8.214;2023-04-16T13:28:09;12.93;;;9.52;;
23266;SDS011;11802;53.160;8.214;2023-04-16T13:30:35;15.40;;;10.15;;
23266;SDS011;11802;53.160;8.214;2023-04-16T13:33:00;14.68;;;9.85;;
23266;SDS011;11802;53.160;8.214;2023-04-16T13:35:26;14.10;;;9.40;;
23266;SDS011;11802;53.160;8.214;2023-04-16T13:37:51;14.57;;;9.27;;
23266;SDS011;11802;53.160;8.214;2023-04-16T13:40:17;12.35;;;9.50;;
23266;SDS011;11802;53.160;8.214;2023-04-16T13:42:42;13.75;;;10.23;;
23266;SDS011;11802;53.160;8.214;2023-04-16T13:45:08;14.25;;;10.50;;
23266;SDS011;11802;53.160;8.214;2023-04-16T13:47:34;14.82;;;10.55;;
23266;SDS011;11802;53.160;8.214;2023-04-16T13:50:00;15.27;;;10.20;;
23266;SDS011;11802;53.160;8.214;2023-04-16T13:52:26;13.48;;;9.68;;
23266;SDS011;11802;53.160;8.214;2023-04-16T13:54:51;12.23;;;9.55;;
23266;SDS011;11802;53.160;8.214;2023-04-16T13:57:17;15.07;;;10.20;;
23266;SDS011;11802;53.160;8.214;2023-04-16T13:59:43;13.30;;;9.65;;
23266;SDS011;11802;53.160;8.214;2023-04-16T14:02:09;16.33;;;9.93;;
23266;SDS011;11802;53.160;8.214;2023-04-16T14:04:35;14.98;;;9.65;;
23266;SDS011;11802;53.160;8.214;2023-04-16T14:07:00;16.02;;;9.75;;
23266;SDS011;11802;53.160;8.214;2023-04-16T14:09:26;13.73;;;9.45;;
23266;SDS011;11802;53.160;8.214;2023-04-16T14:11:52;13.00;;;9.32;;
23266;SDS011;11802;53.160;8.214;2023-04-16T14:14:17;12.45;;;8.93;;
23266;SDS011;11802;53.160;8.214;2023-04-16T14:16:43;12.90;;;9.60;;
23266;SDS011;11802;53.160;8.214;2023-04-16T14:19:08;12.88;;;9.07;;
23266;SDS011;11802;53.160;8.214;2023-04-16T14:21:34;12.25;;;8.45;;
23266;SDS011;11802;53.160;8.214;2023-04-16T14:24:00;11.93;;;8.15;;
23266;SDS011;11802;53.160;8.214;2023-04-16T14:26:26;11.27;;;8.15;;
23266;SDS011;11802;53.160;8.214;2023-04-16T14:28:52;12.80;;;8.75;;